x

Dunkirk, Ny (dbln6) Weather Station

5:00am - Mon 27th Feb 2017 All times are CST. -6 hours from GMT.

  • Wind
    10mph, 15mph gusts
  • Air Temp 38°f
  • Sea Pressure 1022.3mb
  • Dunkirk, Ny
  • Dunkirk, Ny

More Historic Weather Station data

Upgrade to MSW Pro to gain access to the past 30 days of data for over 8000 Wavebouys and Weather Stations around the globe.

Join Pro

Comparision Forecast

View Surf forecast
   
Mon 02/27 5:00am 10 15 mph 1022.3mb 38f
4:00am 10 18 mph 1021.3mb 38f
3:00am 11 16 mph 1020.8mb 39f
2:00am 18 25 mph 1020.1mb 40f
1:00am 16 24 mph 1020.2mb 40f
12:00am 15 25 mph 1019.7mb 39f
Sun 02/26 11:00pm 17 23 mph 1019.4mb 39f
10:00pm 21 29 mph 1018.9mb 38f
9:00pm 17 26 mph 1019mb 38f
8:00pm 13 26 mph 1018.8mb 36f
7:00pm 13 20 mph 1018.2mb 35f
6:00pm 7 13 mph 1019.1mb 34f
5:00pm 8 11 mph 1019.2mb 34f
4:00pm 16 17 mph 1018.6mb 33f
3:00pm 17 21 mph 1019mb 32f
2:00pm 25 29 mph 1018.9mb 31f
1:00pm 29 34 mph 1018.6mb 31f
12:00pm 25 29 mph 1018.7mb 29f
11:00am 25 30 mph 1019.4mb 29f
10:00am 17 23 mph 1019.4mb 29f
9:00am 25 29 mph 1018mb 29f
8:00am 28 31 mph 1017.4mb 28f
7:00am 24 26 mph 1017mb 29f
6:00am 28 30 mph 1015.5mb 29f
5:00am 29 32 mph 1014.6mb 28f
4:00am 25 30 mph 1014mb 30f
3:00am 25 29 mph 1013.3mb 29f
2:00am 28 32 mph 1012.6mb 29f
1:00am 30 33 mph 1012mb 29f
12:00am 30 32 mph 1011.8mb 29f
Sat 02/25 11:00pm 30 32 mph 1010.8mb 29f
10:00pm 37 41 mph 1009.3mb 30f
9:00pm 32 36 mph 1009.2mb 30f
8:00pm 38 46 mph 1007.5mb 31f
7:00pm 44 49 mph 1004.9mb 33f
6:00pm 41 46 mph 1003.8mb 34f
5:00pm 45 48 mph 1002.2mb 35f
4:00pm 38 45 mph 1002.5mb 36f
3:00pm 32 41 mph 1002.4mb 36f
2:00pm 36 40 mph 1001mb 37f
1:00pm 28 31 mph 1001.2mb 38f
12:00pm 23 26 mph 1000.9mb 39f
11:00am 21 23 mph 1000.7mb 39f
10:00am 24 25 mph 1000.1mb 39f
9:00am 24 29 mph 1000.2mb 41f
8:00am 24 28 mph 999.5mb 40f
7:00am 28 31 mph 998.8mb 41f
6:00am 28 33 mph 998.1mb 42f
5:00am 28 31 mph 998.2mb -
4:00am 7 13 mph 998.4mb 57f
3:00am 10 15 mph 999.3mb 57f
2:00am 5 6 mph 999.7mb 49f
1:00am 18
mph
999.8mb 49f
12:00am 2 5 mph 999.3mb 50f
Fri 02/24 11:00pm 11 13 mph 999.7mb 51f
10:00pm 13 21 mph 999.2mb -
9:00pm  -  2 mph 1000.4mb 53f
8:00pm 7 8 mph 1000.9mb 49f
7:00pm 10
mph
1002.8mb 45f
6:00pm 6 7 mph 1003.6mb 45f
5:00pm 8 10 mph 1003mb 51f
4:00pm 9 10 mph 1002.1mb 50f
3:00pm 8 9 mph 1002.6mb 46f
2:00pm 8 9 mph 1002.5mb 54f
1:00pm 11 13 mph 1003mb 54f
12:00pm 20 21 mph 1003.5mb 54f
11:00am 16 18 mph 1004.5mb 59f
10:00am 7 11 mph 1005mb -
9:00am 6 7 mph 1006.2mb -
8:00am 7
mph
1007.4mb 44f
7:00am 8 10 mph 1007.6mb 39f
6:00am 8 10 mph 1007.4mb 44f
5:00am 15 17 mph 1008.4mb 38f
4:00am 11 13 mph 1008.9mb 37f
3:00am 22 23 mph 1009mb 37f
2:00am 15 16 mph 1009.8mb 38f
1:00am 17 18 mph 1010mb 37f
12:00am 14 15 mph 1010.2mb 38f
Thu 02/23 11:00pm 15 16 mph 1010.1mb 37f
10:00pm 16
mph
1010.4mb 44f
9:00pm 8
mph
1011.6mb 40f
8:00pm 5 6 mph 1011.4mb 43f
7:00pm 7 9 mph 1010.6mb 48f
6:00pm 9 11 mph 1010.4mb 48f
5:00pm 14 15 mph 1010.1mb 46f
4:00pm 16 17 mph 1008.3mb 47f
3:00pm 21 23 mph 1007.7mb 49f
2:00pm 24 28 mph 1007.2mb 48f
1:00pm 24 26 mph 1006.1mb 48f